RKSO/OSN METAR and TAF weather

Enter ICAO airport designator
Station Type Date Time Source
RKSO METAR 2024/06/14 01:55 UTC NOAA

RKSO 140155Z 20007KT 5SM HZ CLR 30/17 A2971 RMK AO2A SLP059 T02970165 $


Station Type Date Time Source
RKSO Decoded METAR 2024/06/14 01:55 UTC NOAA

Osan Ab, Korea, South (RKSO) 37-06N 127-02E 12M
Jun 13, 2024 - 09:55 PM EDT / 2024.06.14 0155 UTC
Wind: from the SSW (200 degrees) at 8 MPH (7 KT):0
Visibility: 5 mile(s):0
Sky conditions: clear
Weather: haze
Temperature: 85.5 F (29.7 C)
Dew Point: 61.7 F (16.5 C)
Relative Humidity: 44%
Pressure (altimeter): 29.71 in. Hg (1006 hPa)
ob: RKSO 140155Z 20007KT 5SM HZ CLR 30/17 A2971 RMK AO2A SLP059 T02970165
cycle: 2

Station Type Date Time Source
RKSO TAF 2024/06/13 21:06 UTC NOAA